Time;durP1;ratioP1;P1;durP2;ratioP2;P2;SDS_P1;SDS_P2;PMS_P1;PMS_P2;Temp;Humidity;BMP_temperature;BMP_pressure;BME280_temperature;BME280_humidity;BME280_pressure;Samples;Min_cycle;Max_cycle;Signal;HPM_P1;HPM_P2
2023/01/13 00:00:08;;;;;;;;;8.00;7.75;;;;;8.25;75.33;101196.34;4977368;28;45401;-72
2023/01/13 00:02:33;;;;;;;;;7.75;4.50;;;;;8.45;75.29;101210.38;4977578;28;45522;-71
2023/01/13 00:04:59;;;;;;;;;3.75;3.00;;;;;8.55;74.76;101210.03;4977429;28;45392;-72
2023/01/13 00:07:24;;;;;;;;;2.00;1.00;;;;;8.36;74.73;101152.63;4987661;28;46429;-72
2023/01/13 00:09:50;;;;;;;;;5.50;2.25;;;;;8.64;74.23;101191.34;4996960;28;45297;-71
2023/01/13 00:12:16;;;;;;;;;2.00;2.00;;;;;8.72;73.83;101192.59;4997489;28;45450;-72
2023/01/13 00:14:41;;;;;;;;;2.00;1.75;;;;;8.83;73.31;101198.31;4997187;28;45470;-68
2023/01/13 00:17:07;;;;;;;;;2.50;2.50;;;;;8.84;73.39;101197.50;4997146;28;46298;-71
2023/01/13 00:19:32;;;;;;;;;7.50;5.25;;;;;8.88;73.10;101202.03;4996483;28;45455;-71
2023/01/13 00:21:58;;;;;;;;;4.75;3.75;;;;;8.92;72.86;101206.56;5000375;28;45430;-67
2023/01/13 00:24:23;;;;;;;;;7.75;7.25;;;;;8.90;72.77;101189.97;5000520;28;45230;-67
2023/01/13 00:26:49;;;;;;;;;5.25;4.00;;;;;8.56;73.18;101138.00;4999910;28;45312;-67
2023/01/13 00:29:14;;;;;;;;;7.00;6.75;;;;;8.76;73.25;101176.28;4999222;28;45514;-73
2023/01/13 00:31:40;;;;;;;;;4.75;3.25;;;;;8.90;72.39;101174.34;5000022;28;45416;-70
2023/01/13 00:34:05;;;;;;;;;3.00;2.50;;;;;8.96;71.94;101163.31;4999961;28;45297;-69
2023/01/13 00:36:31;;;;;;;;;6.00;5.25;;;;;9.06;70.85;101160.31;4999469;28;46208;-73
2023/01/13 00:38:57;;;;;;;;;6.50;4.75;;;;;9.31;70.49;101192.69;4999798;28;45449;-73
2023/01/13 00:41:25;;;;;;;;;4.50;4.50;;;;;9.23;70.37;101171.50;4998496;28;45360;-69
2023/01/13 00:43:50;;;;;;;;;4.00;3.00;;;;;9.45;70.62;101185.50;4999578;28;45497;-73
2023/01/13 00:46:18;;;;;;;;;4.00;3.00;;;;;9.49;70.20;101184.78;4999761;28;46236;-73
2023/01/13 00:48:44;;;;;;;;;3.50;3.00;;;;;9.54;70.23;101196.34;4999858;28;45294;-71
2023/01/13 00:51:16;;;;;;;;;2.00;2.00;;;;;9.57;69.33;101199.09;4999870;28;45340;-73
2023/01/13 00:53:47;;;;;;;;;3.75;3.00;;;;;9.68;69.01;101207.38;5000043;28;45571;-72
2023/01/13 00:56:18;;;;;;;;;2.50;2.50;;;;;9.62;68.40;101184.53;4998241;28;45369;-73
2023/01/13 00:58:44;;;;;;;;;3.00;2.00;;;;;9.78;68.55;101206.97;4999647;28;45167;-73
2023/01/13 01:01:15;;;;;;;;;3.00;2.00;;;;;9.82;68.56;101197.56;4999519;28;45479;-70
2023/01/13 01:03:41;;;;;;;;;2.75;2.00;;;;;9.70;68.20;101161.38;4999470;28;45520;-70
2023/01/13 01:06:11;;;;;;;;;2.50;1.50;;;;;9.96;67.06;101196.44;4998923;28;46170;-72
2023/01/13 01:08:37;;;;;;;;;2.00;2.00;;;;;10.03;66.31;101203.72;4999254;28;45365;-70
2023/01/13 01:11:04;;;;;;;;;2.75;2.00;;;;;10.07;66.46;101200.41;4999302;28;45442;-73
2023/01/13 01:13:31;;;;;;;;;2.25;2.00;;;;;10.09;66.15;101197.84;4999462;28;45480;-73
2023/01/13 01:15:57;;;;;;;;;2.00;2.00;;;;;10.11;66.07;101204.91;4999186;28;46145;-72
2023/01/13 01:18:23;;;;;;;;;2.00;2.00;;;;;10.14;66.19;101207.63;4999338;28;45249;-72
2023/01/13 01:20:48;;;;;;;;;9.25;9.00;;;;;10.16;66.05;101212.94;4999546;28;45328;-73
2023/01/13 01:23:14;;;;;;;;;4.00;4.00;;;;;10.16;66.51;101216.44;4999655;28;45460;-73
2023/01/13 01:25:39;;;;;;;;;3.00;3.00;;;;;10.18;66.82;101207.78;4999206;28;46096;-69
2023/01/13 01:28:05;;;;;;;;;10.25;8.25;;;;;10.19;66.21;101212.19;4998961;28;45288;-72
2023/01/13 01:30:30;;;;;;;;;3.00;2.25;;;;;10.21;66.37;101208.81;4998369;28;45475;-73
2023/01/13 01:32:56;;;;;;;;;7.00;3.75;;;;;10.27;65.75;101210.78;4999186;28;45455;-72
2023/01/13 01:35:22;;;;;;;;;1.00;1.00;;;;;10.30;64.88;101208.31;4999278;28;45774;-73
2023/01/13 01:37:48;;;;;;;;;3.25;3.25;;;;;10.31;64.64;101205.78;4999055;28;45419;-72
2023/01/13 01:40:14;;;;;;;;;4.00;4.00;;;;;10.33;64.02;101216.31;4999084;28;45501;-73
2023/01/13 01:45:37;;;;;;;;;3.25;2.25;;;;;10.41;64.31;101211.41;4997279;28;45995;-73
2023/01/13 01:48:03;;;;;;;;;5.00;4.75;;;;;10.27;63.79;101174.22;4996942;28;45861;-69
2023/01/13 01:50:30;;;;;;;;;5.25;5.00;;;;;10.45;63.96;101206.34;4997286;28;45376;-68
2023/01/13 01:53:01;;;;;;;;;4.50;4.00;;;;;10.11;64.17;101155.31;4997160;28;45566;-68
2023/01/13 01:55:32;;;;;;;;;3.00;3.00;;;;;10.46;64.30;101215.06;4996775;28;46197;-72
2023/01/13 01:58:09;;;;;;;;;4.50;4.00;;;;;10.25;64.67;101178.50;4996888;28;45382;-72
2023/01/13 02:00:35;;;;;;;;;2.00;2.00;;;;;10.45;64.82;101211.59;4996964;28;45486;-70
2023/01/13 02:03:03;;;;;;;;;1.00;1.00;;;;;10.49;64.84;101213.50;4995799;28;45450;-72
2023/01/13 02:05:28;;;;;;;;;2.00;1.25;;;;;10.53;64.44;101212.78;4996672;28;45526;-71
2023/01/13 02:07:57;;;;;;;;;4.00;2.00;;;;;10.55;64.63;101231.13;4995603;28;45546;-69
2023/01/13 02:10:26;;;;;;;;;3.00;2.50;;;;;10.56;64.80;101232.91;4994381;28;45340;-71
2023/01/13 02:12:54;;;;;;;;;3.00;3.00;;;;;10.59;64.76;101237.38;4996894;28;45524;-72
2023/01/13 02:15:23;;;;;;;;;2.50;2.25;;;;;10.61;64.35;101240.94;4995424;28;46688;-72
2023/01/13 02:18:06;;;;;;;;;2.50;2.00;;;;;10.65;64.41;101242.84;4996930;28;45478;-72
2023/01/13 02:20:47;;;;;;;;;5.75;5.00;;;;;10.68;64.21;101242.97;4997442;28;45498;-68
2023/01/13 02:26:30;;;;;;;;;4.00;3.00;;;;;10.67;65.21;101243.81;4994045;28;45626;-68
2023/01/13 02:32:27;;;;;;;;;2.25;2.25;;;;;10.47;65.00;101228.22;4994998;28;45558;-72
2023/01/13 02:35:10;;;;;;;;;4.00;3.25;;;;;10.66;65.60;101260.31;4996977;28;45413;-71
2023/01/13 02:37:41;;;;;;;;;3.25;3.00;;;;;10.67;65.58;101260.38;4995438;28;45416;-71
2023/01/13 02:40:10;;;;;;;;;2.50;2.25;;;;;10.69;65.57;101260.44;4996115;28;45523;-72
2023/01/13 02:45:38;;;;;;;;;2.25;1.75;;;;;10.58;65.32;101225.13;4994770;28;45408;-72
2023/01/13 02:48:07;;;;;;;;;6.00;5.25;;;;;10.78;66.09;101244.22;4993919;28;45486;-70
2023/01/13 02:50:43;;;;;;;;;2.75;2.00;;;;;10.77;66.50;101248.56;4996200;28;45451;-72
2023/01/13 02:53:21;;;;;;;;;2.00;2.00;;;;;10.75;67.53;101245.91;4994602;28;45678;-73
2023/01/13 02:55:51;;;;;;;;;2.25;2.00;;;;;10.75;67.23;101243.28;4994255;28;45422;-72
2023/01/13 02:58:27;;;;;;;;;0.33;0.00;;;;;10.75;67.37;101239.78;4995998;28;45483;-70
2023/01/13 03:00:54;;;;;;;;;1.00;1.00;;;;;10.73;67.98;101236.22;4995815;28;45398;-71
2023/01/13 03:03:22;;;;;;;;;4.50;3.00;;;;;10.70;68.16;101228.25;4995470;28;45579;-69
2023/01/13 03:05:52;;;;;;;;;3.33;2.00;;;;;10.72;68.39;101229.19;4995323;28;45498;-72
2023/01/13 03:08:30;;;;;;;;;2.00;2.00;;;;;10.69;68.47;101234.31;4995409;28;46110;-72
2023/01/13 03:11:08;;;;;;;;;2.00;1.00;;;;;10.68;69.68;101232.50;4995455;28;45392;-70
2023/01/13 03:13:54;;;;;;;;;2.25;2.25;;;;;10.66;70.08;101222.00;4994735;28;45751;-72
2023/01/13 03:16:39;;;;;;;;;2.25;2.00;;;;;10.61;70.28;101225.28;4996218;28;45877;-72
2023/01/13 03:19:25;;;;;;;;;2.50;2.50;;;;;10.59;70.03;101213.88;4993642;28;46031;-71
2023/01/13 03:22:21;;;;;;;;;2.00;2.00;;;;;10.61;70.05;101217.44;4994597;28;45506;-72
2023/01/13 03:25:04;;;;;;;;;1.00;1.00;;;;;10.64;69.90;101204.47;4993856;28;45502;-71
2023/01/13 03:27:39;;;;;;;;;0.00;0.00;;;;;10.67;69.79;101204.63;4994460;28;45440;-72
2023/01/13 03:30:19;;;;;;;;;2.00;2.00;;;;;10.68;69.83;101202.06;4993192;28;46055;-72
2023/01/13 03:32:49;;;;;;;;;1.00;1.00;;;;;10.71;69.88;101199.56;4993386;28;45455;-71
2023/01/13 03:35:17;;;;;;;;;0.33;0.33;;;;;10.77;69.75;101196.31;4995690;28;45565;-71
2023/01/13 03:37:53;;;;;;;;;0.00;0.00;;;;;10.66;69.75;101184.53;4993178;28;45481;-73
2023/01/13 03:40:26;;;;;;;;;1.00;0.33;;;;;10.73;69.74;101207.47;4996244;28;45532;-71
2023/01/13 03:45:50;;;;;;;;;0.00;0.00;;;;;10.78;70.13;101213.75;4997229;28;45266;-73
2023/01/13 03:48:21;;;;;;;;;2.00;1.00;;;;;10.78;70.15;101212.88;4997535;28;45482;-72
2023/01/13 03:50:50;;;;;;;;;1.00;1.00;;;;;10.78;70.21;101213.75;4996890;28;45302;-68
2023/01/13 03:53:42;;;;;;;;;1.00;1.00;;;;;10.83;70.84;101216.56;4997226;28;45371;-71
2023/01/13 03:56:25;;;;;;;;;1.00;1.00;;;;;10.82;71.04;101212.16;5000779;28;45458;-72
2023/01/13 03:58:52;;;;;;;;;1.00;1.00;;;;;10.81;71.30;101224.34;5000930;28;45475;-71
2023/01/13 04:01:33;;;;;;;;;0.50;0.50;;;;;10.82;71.68;101225.22;5000135;28;46145;-72
2023/01/13 04:04:04;;;;;;;;;0.00;0.00;;;;;10.82;71.72;101227.84;5000390;28;45424;-71
2023/01/13 04:06:54;;;;;;;;;1.00;0.00;;;;;10.52;72.37;101174.44;4999725;28;45338;-72
2023/01/13 04:09:36;;;;;;;;;0.67;0.00;;;;;10.81;73.11;101215.63;5000724;28;45518;-73
2023/01/13 04:12:19;;;;;;;;;1.00;1.00;;;;;10.54;74.04;101167.56;5000132;28;45544;-72
2023/01/13 04:14:45;;;;;;;;;0.00;0.00;;;;;10.80;74.80;101212.09;5000251;28;45263;-75
2023/01/13 04:17:11;;;;;;;;;1.00;0.00;;;;;10.78;74.77;101211.13;5000335;28;45310;-73
2023/01/13 04:19:36;;;;;;;;;1.00;0.67;;;;;10.76;75.48;101204.97;5000511;28;45384;-73
2023/01/13 04:22:02;;;;;;;;;1.00;0.00;;;;;10.74;75.85;101210.16;4999874;28;46175;-73
2023/01/13 04:24:28;;;;;;;;;0.33;0.00;;;;;10.73;76.22;101194.41;5000088;28;45478;-72
2023/01/13 04:26:55;;;;;;;;;0.00;0.00;;;;;10.72;76.35;101198.75;5000512;28;45531;-72
2023/01/13 04:29:21;;;;;;;;;0.00;0.00;;;;;10.72;76.68;101203.06;5000361;28;45296;-73
2023/01/13 04:31:46;;;;;;;;;0.75;0.00;;;;;10.69;76.60;101206.44;4999859;28;46157;-70
2023/01/13 04:34:12;;;;;;;;;0.50;0.00;;;;;10.70;76.84;101194.28;5000059;28;45294;-73
2023/01/13 04:36:37;;;;;;;;;0.00;0.00;;;;;10.67;76.97;101205.50;5000040;28;45248;-72
2023/01/13 04:39:03;;;;;;;;;1.00;0.00;;;;;10.67;77.34;101210.72;5000310;28;45197;-73
2023/01/13 04:41:56;;;;;;;;;0.33;0.00;;;;;10.67;76.87;101215.94;4999825;28;45293;-72
2023/01/13 04:44:14;;;;;;;;;0.00;0.00;;;;;10.70;77.07;101210.88;4999106;28;45486;-71
2023/01/13 04:46:39;;;;;;;;;1.00;1.00;;;;;10.70;76.88;101208.25;4998943;28;45527;-66
2023/01/13 04:49:05;;;;;;;;;0.00;0.00;;;;;10.70;76.96;101202.09;4998392;28;45494;-72
2023/01/13 04:51:31;;;;;;;;;0.00;0.00;;;;;10.70;77.00;101209.94;4997915;28;45391;-71
2023/01/13 04:53:56;;;;;;;;;0.00;0.00;;;;;10.74;77.03;101201.41;4998448;28;45424;-73
2023/01/13 04:56:21;;;;;;;;;0.00;0.00;;;;;10.73;76.69;101202.25;4997945;28;45427;-72
2023/01/13 04:58:47;;;;;;;;;0.00;0.00;;;;;10.75;76.70;101200.59;4998302;28;45368;-71
2023/01/13 05:01:12;;;;;;;;;0.33;0.33;;;;;10.79;76.59;101206.84;4997851;28;45948;-72
2023/01/13 05:03:38;;;;;;;;;0.00;0.00;;;;;10.86;76.33;101196.69;4997857;28;45395;-72
2023/01/13 05:06:03;;;;;;;;;0.00;0.00;;;;;10.88;76.14;101202.84;4997400;28;45426;-69
2023/01/13 05:08:29;;;;;;;;;0.00;0.00;;;;;10.88;75.99;101200.25;4998140;28;45399;-72
2023/01/13 05:10:59;;;;;;;;;0.00;0.00;;;;;10.97;75.57;101209.28;4997895;28;45488;-73
2023/01/13 05:18:53;;;;;;;;;0.00;0.00;;;;;11.08;75.13;101215.78;4996517;28;45308;-72
2023/01/13 05:26:47;;;;;;;;;0.00;0.00;;;;;11.01;74.06;101193.75;4994851;28;45599;-72
2023/01/13 05:29:12;;;;;;;;;0.00;0.00;;;;;10.22;73.85;101058.25;4997783;28;45821;-72
2023/01/13 05:31:38;;;;;;;;;0.00;0.00;;;;;11.21;74.02;101220.66;4997526;28;45479;-73
2023/01/13 05:34:03;;;;;;;;;0.33;0.00;;;;;11.25;73.68;101227.78;4998302;28;45474;-72
2023/01/13 05:36:29;;;;;;;;;0.00;0.00;;;;;11.11;73.28;101188.03;4999624;28;45493;-70
2023/01/13 05:38:54;;;;;;;;;1.00;1.00;;;;;11.33;73.09;101223.75;4998070;28;45353;-71
2023/01/13 05:44:04;;;;;;;;;0.00;0.00;;;;;11.38;72.83;101226.56;4996936;28;45407;-72
2023/01/13 05:46:29;;;;;;;;;0.00;0.00;;;;;11.40;73.06;101229.19;4997080;28;45586;-71
2023/01/13 05:48:55;;;;;;;;;0.00;0.00;;;;;11.44;72.79;101224.16;4997767;28;45383;-73
2023/01/13 05:51:24;;;;;;;;;0.00;0.00;;;;;11.46;72.39;101224.19;4997197;28;46119;-73
2023/01/13 05:53:50;;;;;;;;;0.00;0.00;;;;;11.41;72.20;101205.72;4994952;28;45460;-72
2023/01/13 05:56:16;;;;;;;;;0.00;0.00;;;;;11.50;72.36;101218.28;4996949;28;45689;-72
2023/01/13 05:58:43;;;;;;;;;1.00;0.00;;;;;11.53;72.22;101229.72;4997971;28;45495;-73
2023/01/13 06:01:09;;;;;;;;;1.00;0.00;;;;;11.53;72.46;101236.69;4997704;28;45982;-73
2023/01/13 06:03:35;;;;;;;;;2.00;0.33;;;;;10.70;72.59;101097.59;4998641;28;45503;-72
2023/01/13 06:06:02;;;;;;;;;0.00;0.00;;;;;11.48;72.47;101230.38;4998048;28;45450;-71
2023/01/13 06:08:29;;;;;;;;;0.00;0.00;;;;;11.53;72.73;101249.75;4998135;28;45488;-70
2023/01/13 06:10:55;;;;;;;;;0.00;0.00;;;;;11.54;72.87;101249.84;4997950;28;45486;-72
2023/01/13 06:13:20;;;;;;;;;0.33;0.00;;;;;11.59;72.49;101250.00;4997312;28;45358;-73
2023/01/13 06:15:46;;;;;;;;;1.00;0.00;;;;;11.47;71.94;101237.34;4997782;28;45488;-72
2023/01/13 06:18:11;;;;;;;;;0.00;0.00;;;;;11.63;71.89;101259.72;4997275;28;45348;-73
2023/01/13 06:20:37;;;;;;;;;1.00;0.67;;;;;11.48;71.87;101225.13;4994758;28;45404;-72
2023/01/13 06:23:03;;;;;;;;;2.00;1.00;;;;;11.65;72.13;101258.06;4996786;28;45300;-73
2023/01/13 06:25:46;;;;;;;;;1.00;0.00;;;;;11.63;72.03;101257.13;4997650;28;45442;-72
2023/01/13 06:28:12;;;;;;;;;1.00;0.00;;;;;11.63;71.83;101261.47;4995539;28;45588;-71
2023/01/13 06:30:41;;;;;;;;;1.00;0.00;;;;;11.65;71.99;101278.13;4997282;28;45376;-71
2023/01/13 06:33:12;;;;;;;;;0.00;0.00;;;;;11.46;71.60;101248.66;4997173;28;46386;-71
2023/01/13 06:35:41;;;;;;;;;0.00;0.00;;;;;11.67;71.98;101279.94;4998162;28;45324;-70
2023/01/13 06:38:12;;;;;;;;;1.67;1.00;;;;;11.67;71.90;101273.84;4998209;28;45569;-71
2023/01/13 06:40:39;;;;;;;;;0.67;0.67;;;;;11.68;71.99;101279.13;4996944;28;46123;-71
2023/01/13 06:43:13;;;;;;;;;1.00;0.00;;;;;11.69;72.07;101291.38;4994979;28;45723;-71
2023/01/13 06:45:47;;;;;;;;;1.00;1.00;;;;;11.71;72.01;101294.03;4997373;28;46200;-71
2023/01/13 06:48:13;;;;;;;;;8.25;5.00;;;;;11.72;72.12;101285.38;4998111;28;45507;-71
2023/01/13 06:50:40;;;;;;;;;3.00;3.00;;;;;11.73;71.82;101290.63;4997794;28;45498;-71
2023/01/13 06:53:06;;;;;;;;;5.00;3.67;;;;;11.72;71.86;101299.34;4997520;28;45468;-72
2023/01/13 06:55:32;;;;;;;;;6.50;5.00;;;;;11.73;71.86;101293.25;4997395;28;45320;-69
2023/01/13 06:57:57;;;;;;;;;6.00;5.00;;;;;11.73;72.10;101293.25;4997780;28;45735;-71
2023/01/13 07:00:25;;;;;;;;;5.00;4.00;;;;;11.75;71.90;101299.44;4997562;28;45979;-70
2023/01/13 07:02:51;;;;;;;;;4.50;4.50;;;;;11.64;71.62;101292.03;4997479;28;45458;-71
2023/01/13 07:05:17;;;;;;;;;2.00;1.67;;;;;11.77;71.83;101303.84;4997455;28;45487;-71
2023/01/13 07:07:43;;;;;;;;;0.00;0.00;;;;;11.77;71.65;101301.25;4994712;28;45419;-71
2023/01/13 07:10:12;;;;;;;;;0.00;0.00;;;;;11.80;71.59;101309.19;4996467;28;46336;-73
2023/01/13 07:15:23;;;;;;;;;0.00;0.00;;;;;11.81;71.64;101324.06;4995421;28;45509;-72
2023/01/13 07:17:49;;;;;;;;;0.00;0.00;;;;;11.62;71.42;101309.41;4996941;28;45484;-71
2023/01/13 07:20:15;;;;;;;;;4.00;4.00;;;;;11.79;71.59;101350.19;4993436;28;45647;-70
2023/01/13 07:22:41;;;;;;;;;2.00;2.00;;;;;11.79;71.90;101346.69;4996582;28;45568;-70
2023/01/13 07:25:07;;;;;;;;;6.25;6.25;;;;;11.54;71.73;101294.31;4996658;28;45548;-70
2023/01/13 07:27:33;;;;;;;;;0.00;0.00;;;;;11.82;71.59;101341.59;4997150;28;45468;-68
2023/01/13 07:29:58;;;;;;;;;0.00;0.00;;;;;11.82;71.43;101341.59;4995851;28;45988;-70
2023/01/13 07:32:24;;;;;;;;;1.00;1.00;;;;;11.82;71.49;101354.69;4995956;28;45517;-69
2023/01/13 07:34:50;;;;;;;;;0.00;0.00;;;;;11.84;71.18;101355.63;4997008;28;45489;-69
2023/01/13 07:37:15;;;;;;;;;1.00;0.67;;;;;11.84;71.50;101371.34;4997400;28;45415;-71
2023/01/13 07:39:41;;;;;;;;;5.00;4.67;;;;;11.85;71.15;101373.09;4996960;28;46087;-71
2023/01/13 07:44:52;;;;;;;;;4.00;3.00;;;;;11.87;71.63;101385.41;4997247;28;45231;-70
2023/01/13 07:47:20;;;;;;;;;0.33;0.33;;;;;11.88;72.13;101391.56;4997060;28;45245;-70
2023/01/13 07:49:46;;;;;;;;;1.00;1.00;;;;;11.88;72.20;101392.44;4996712;28;46195;-71
2023/01/13 07:52:11;;;;;;;;;0.00;0.00;;;;;11.88;72.56;101399.41;4996775;28;45430;-72
2023/01/13 07:54:37;;;;;;;;;5.00;4.00;;;;;11.86;72.24;101390.59;4996937;28;45351;-71
2023/01/13 07:57:02;;;;;;;;;2.67;2.67;;;;;11.89;72.09;101401.22;4997210;28;45391;-72
2023/01/13 07:59:28;;;;;;;;;1.00;1.00;;;;;11.90;71.87;101395.16;4996393;28;45488;-71
2023/01/13 08:01:53;;;;;;;;;0.00;0.00;;;;;11.92;71.64;101396.09;4996624;28;45486;-71
2023/01/13 08:04:19;;;;;;;;;0.00;0.00;;;;;11.93;72.27;101404.00;4996882;28;45232;-71
2023/01/13 08:06:44;;;;;;;;;0.00;0.00;;;;;11.85;72.19;101387.06;4997094;28;45478;-71
2023/01/13 08:09:10;;;;;;;;;1.33;1.00;;;;;11.98;72.46;101404.19;4996599;28;45653;-71
2023/01/13 08:11:35;;;;;;;;;2.00;2.00;;;;;12.02;72.61;101408.72;4996997;28;45237;-70
2023/01/13 08:14:01;;;;;;;;;1.00;1.00;;;;;12.06;72.26;101405.38;4997236;28;45454;-72
2023/01/13 08:16:26;;;;;;;;;2.00;2.00;;;;;12.14;72.25;101413.53;4997084;28;46128;-71
2023/01/13 08:18:52;;;;;;;;;2.33;2.00;;;;;12.18;72.03;101417.16;4996777;28;45595;-72
2023/01/13 08:21:17;;;;;;;;;1.33;1.00;;;;;12.19;72.17;101411.06;4996822;28;45319;-71
2023/01/13 08:23:44;;;;;;;;;1.00;1.00;;;;;12.22;71.74;101405.94;4996648;28;45353;-71
2023/01/13 08:26:16;;;;;;;;;36.00;32.00;;;;;12.23;72.08;101408.59;4996713;28;45738;-72
2023/01/13 08:28:42;;;;;;;;;17.50;16.00;;;;;12.28;71.97;101414.03;4996320;28;46092;-73
2023/01/13 08:31:11;;;;;;;;;23.25;19.25;;;;;12.19;71.97;101392.72;4996352;28;45459;-70
2023/01/13 08:33:36;;;;;;;;;24.25;23.50;;;;;12.33;71.98;101428.19;4996982;28;45300;-70
2023/01/13 08:36:07;;;;;;;;;22.00;18.00;;;;;12.32;72.40;101429.03;4997025;28;45474;-71
2023/01/13 08:38:34;;;;;;;;;11.00;8.25;;;;;12.29;72.96;101418.41;4996828;28;46478;-71
2023/01/13 08:41:00;;;;;;;;;8.50;6.25;;;;;12.36;72.88;101422.19;4998202;28;45481;-70
2023/01/13 08:43:26;;;;;;;;;16.25;13.00;;;;;12.35;73.16;101431.75;4999894;28;45279;-71
2023/01/13 08:45:57;;;;;;;;;8.00;7.00;;;;;12.34;73.25;101430.84;5000100;28;45346;-70
2023/01/13 08:48:22;;;;;;;;;2.00;2.00;;;;;12.31;74.08;101432.47;4998234;28;45422;-70
2023/01/13 08:50:48;;;;;;;;;5.00;5.00;;;;;12.33;73.95;101420.31;4999773;28;45505;-71
2023/01/13 08:53:13;;;;;;;;;7.75;6.75;;;;;12.18;73.17;101375.25;4999834;28;45379;-71
2023/01/13 08:55:39;;;;;;;;;33.25;29.00;;;;;12.47;73.57;101420.81;4999895;28;45378;-69
2023/01/13 08:58:04;;;;;;;;;54.25;42.00;;;;;12.51;73.41;101439.34;4999424;28;46052;-70
2023/01/13 09:00:30;;;;;;;;;42.00;36.00;;;;;12.48;73.80;101434.00;4999618;28;45383;-71
2023/01/13 09:02:58;;;;;;;;;23.50;22.75;;;;;12.44;73.61;101432.09;4999816;28;45296;-71
2023/01/13 09:05:23;;;;;;;;;39.25;34.25;;;;;12.41;73.89;101429.34;4999607;28;45383;-70
2023/01/13 09:07:49;;;;;;;;;25.00;25.00;;;;;12.45;74.42;101428.63;4997886;28;46773;-71
2023/01/13 09:10:15;;;;;;;;;24.00;22.75;;;;;12.59;74.11;101429.13;4999409;28;45257;-71
2023/01/13 09:15:24;;;;;;;;;7.50;7.50;;;;;13.00;72.98;101429.69;4999858;28;45434;-72
2023/01/13 09:17:49;;;;;;;;;11.50;9.75;;;;;13.08;72.92;101432.56;4999149;28;45686;-71
2023/01/13 09:20:15;;;;;;;;;4.00;4.00;;;;;13.15;72.44;101434.56;4997939;28;45490;-71
2023/01/13 09:22:41;;;;;;;;;7.00;6.50;;;;;13.21;72.06;101432.16;4999168;28;45230;-71
2023/01/13 09:25:07;;;;;;;;;6.00;5.00;;;;;13.03;72.13;101410.53;4999768;28;45422;-71
2023/01/13 09:27:33;;;;;;;;;6.00;6.00;;;;;12.95;72.74;101418.13;4999130;28;45918;-71
2023/01/13 09:29:58;;;;;;;;;15.00;13.50;;;;;12.96;72.37;101432.16;4998966;28;45456;-69
2023/01/13 09:32:24;;;;;;;;;16.25;14.50;;;;;12.96;72.52;101435.66;4999087;28;45560;-71
2023/01/13 09:35:02;;;;;;;;;19.25;15.00;;;;;12.92;72.41;101450.41;4999302;28;45497;-70
2023/01/13 09:37:34;;;;;;;;;27.75;26.75;;;;;12.88;72.55;101453.75;4998958;28;45446;-71
2023/01/13 09:40:01;;;;;;;;;33.75;29.50;;;;;12.86;72.69;101463.31;4998767;28;45322;-71
2023/01/13 09:45:49;;;;;;;;;5.67;5.00;;;;;12.87;73.40;101474.66;4998954;28;45407;-72
2023/01/13 09:48:20;;;;;;;;;42.75;34.50;;;;;12.90;73.63;101494.03;4998573;28;46225;-69
2023/01/13 09:51:08;;;;;;;;;20.50;19.50;;;;;12.89;74.38;101491.34;4998629;28;45570;-71
2023/01/13 09:53:50;;;;;;;;;6.00;5.67;;;;;12.87;74.61;101478.22;4998111;28;45425;-70
2023/01/13 09:56:15;;;;;;;;;2.00;2.00;;;;;13.00;74.38;101471.66;4998770;28;45344;-70
2023/01/13 09:58:43;;;;;;;;;5.33;4.00;;;;;13.23;73.77;101489.91;4998767;28;45981;-70
2023/01/13 10:01:20;;;;;;;;;5.67;5.67;;;;;13.35;73.17;101497.34;4999064;28;45498;-70
2023/01/13 10:03:48;;;;;;;;;8.00;7.00;;;;;13.58;73.13;101506.00;4998555;28;45372;-71
2023/01/13 10:06:16;;;;;;;;;13.75;12.00;;;;;13.78;72.45;101496.13;4998674;28;45316;-71
2023/01/13 10:08:44;;;;;;;;;8.00;8.00;;;;;13.89;72.28;101481.63;4998504;28;45470;-70
2023/01/13 10:14:19;;;;;;;;;22.00;19.75;;;;;13.95;71.55;101489.69;4998374;28;45407;-70
2023/01/13 10:16:55;;;;;;;;;9.50;8.75;;;;;14.25;71.30;101496.75;4998568;28;45256;-70
2023/01/13 10:19:28;;;;;;;;;10.25;10.00;;;;;14.70;70.29;101494.59;4998207;28;45490;-69
2023/01/13 10:22:05;;;;;;;;;12.00;11.00;;;;;14.98;69.19;101491.81;4998255;28;45371;-71
2023/01/13 10:24:52;;;;;;;;;13.25;12.25;;;;;15.10;68.57;101494.78;4998092;28;45436;-70
2023/01/13 10:27:30;;;;;;;;;14.75;14.50;;;;;14.99;68.44;101462.91;4998243;28;46138;-71
2023/01/13 10:29:56;;;;;;;;;9.33;9.00;;;;;14.93;67.78;101468.00;4997909;28;45293;-71
2023/01/13 10:32:22;;;;;;;;;6.67;6.67;;;;;15.02;67.81;101493.66;4998021;28;45503;-70
2023/01/13 10:34:50;;;;;;;;;9.33;8.00;;;;;14.98;67.85;101495.34;4998154;28;45296;-70
2023/01/13 10:37:26;;;;;;;;;6.00;6.00;;;;;15.06;68.00;101498.16;4998178;28;45524;-70
2023/01/13 10:39:59;;;;;;;;;10.33;10.33;;;;;15.16;67.20;101501.94;4997899;28;45383;-70
2023/01/13 10:42:24;;;;;;;;;6.00;6.00;;;;;15.25;66.87;101491.66;4997834;28;45611;-69
2023/01/13 10:44:58;;;;;;;;;12.67;11.33;;;;;15.47;66.59;101495.72;4997938;28;45398;-70
2023/01/13 10:47:31;;;;;;;;;13.50;13.25;;;;;15.64;66.17;101497.03;4997929;28;45454;-69
2023/01/13 10:50:22;;;;;;;;;23.00;21.50;;;;;15.61;66.35;101507.50;4997622;28;46225;-70
2023/01/13 10:52:59;;;;;;;;;4.67;4.67;;;;;15.52;65.74;101504.66;4997647;28;45570;-70
2023/01/13 10:55:29;;;;;;;;;12.67;12.33;;;;;15.48;65.97;101505.44;4997676;28;45473;-70
2023/01/13 10:57:54;;;;;;;;;16.00;15.25;;;;;15.39;66.36;101495.53;4997418;28;45220;-70
2023/01/13 11:00:32;;;;;;;;;10.00;9.33;;;;;15.35;66.47;101509.47;4997154;28;46193;-70
2023/01/13 11:03:23;;;;;;;;;10.00;7.00;;;;;15.36;66.92;101507.72;4997215;28;45402;-70
2023/01/13 11:05:50;;;;;;;;;5.33;5.33;;;;;15.35;67.19;101508.59;4997518;28;45438;-70
2023/01/13 11:08:19;;;;;;;;;5.00;4.00;;;;;15.29;67.11;101510.19;4998115;28;45251;-70
2023/01/13 11:10:48;;;;;;;;;30.00;28.75;;;;;15.34;67.13;101504.16;4997743;28;45473;-70
2023/01/13 11:13:23;;;;;;;;;4.00;3.67;;;;;15.41;67.27;101500.84;4997672;28;45469;-71
2023/01/13 11:15:58;;;;;;;;;1.00;1.00;;;;;15.41;66.09;101471.88;4997633;28;45228;-70
2023/01/13 11:18:50;;;;;;;;;4.00;3.33;;;;;15.64;66.26;101504.06;4997705;28;45379;-70
2023/01/13 11:21:49;;;;;;;;;5.00;3.00;;;;;15.75;65.87;101491.16;4997534;28;45645;-71
2023/01/13 11:24:26;;;;;;;;;7.67;7.00;;;;;15.75;65.22;101460.44;4978293;28;45400;-71
2023/01/13 11:27:00;;;;;;;;;5.67;5.00;;;;;15.98;65.34;101495.25;4997357;28;45204;-70
2023/01/13 11:29:33;;;;;;;;;6.00;5.00;;;;;15.98;64.94;101489.09;4997469;28;45356;-72
2023/01/13 11:32:15;;;;;;;;;9.00;9.00;;;;;15.74;64.77;101445.50;4997117;28;45975;-72
2023/01/13 11:34:45;;;;;;;;;8.00;7.33;;;;;15.79;64.56;101454.38;4997187;28;45509;-72
2023/01/13 11:37:24;;;;;;;;;10.00;9.00;;;;;15.95;64.70;101466.16;4997233;28;45217;-72
2023/01/13 11:40:08;;;;;;;;;6.00;4.00;;;;;15.95;64.53;101465.28;4997284;28;45434;-72
2023/01/13 11:42:39;;;;;;;;;4.67;4.67;;;;;15.95;64.29;101465.28;4996780;28;45418;-71
2023/01/13 11:45:31;;;;;;;;;7.33;7.33;;;;;15.98;64.89;101471.53;4997021;28;45331;-72
2023/01/13 11:48:00;;;;;;;;;3.00;3.00;;;;;15.95;64.97;101475.81;4997174;28;45345;-71
2023/01/13 11:50:41;;;;;;;;;6.00;5.67;;;;;15.83;65.27;101477.31;4997310;28;45405;-72
2023/01/13 11:53:24;;;;;;;;;15.00;14.33;;;;;15.77;65.47;101471.03;4996854;28;45379;-72
2023/01/13 11:56:28;;;;;;;;;13.33;12.00;;;;;15.80;65.82;101481.66;4996982;28;45338;-71
2023/01/13 11:59:31;;;;;;;;;7.33;7.00;;;;;15.91;65.28;101475.75;4981126;28;45555;-72
2023/01/13 12:02:30;;;;;;;;;8.00;7.67;;;;;15.98;65.08;101478.56;4997217;28;45217;-73
2023/01/13 12:05:19;;;;;;;;;22.50;19.00;;;;;15.87;64.99;101442.28;4996686;28;45381;-72
2023/01/13 12:08:12;;;;;;;;;4.00;4.00;;;;;15.98;64.98;101465.38;4996852;28;45201;-72
2023/01/13 12:10:37;;;;;;;;;25.75;21.25;;;;;15.89;65.32;101455.50;4996958;28;45482;-72
2023/01/13 12:13:24;;;;;;;;;23.75;19.50;;;;;15.93;65.76;101444.16;4996966;28;45458;-72
2023/01/13 12:16:14;;;;;;;;;17.67;16.00;;;;;16.05;65.30;101454.09;4977250;28;46370;-70
2023/01/13 12:18:54;;;;;;;;;17.00;14.75;;;;;15.93;65.34;101435.38;5000301;28;45485;-71
2023/01/13 12:21:24;;;;;;;;;16.25;13.75;;;;;16.02;65.33;101454.91;5000355;28;45252;-72